sensor_id;sensor_type;location;lat;lon;timestamp;P1;durP1;ratioP1;P2;durP2;ratioP2
5343;SDS011;2694;48.950;8.970;2023-01-09T00:00:32;1.98;;;1.50;;
5343;SDS011;2694;48.950;8.970;2023-01-09T00:02:59;3.20;;;1.50;;
5343;SDS011;2694;48.950;8.970;2023-01-09T00:05:26;2.30;;;1.40;;
5343;SDS011;2694;48.950;8.970;2023-01-09T00:07:52;3.20;;;1.90;;
5343;SDS011;2694;48.950;8.970;2023-01-09T00:10:19;3.63;;;1.80;;
5343;SDS011;2694;48.950;8.970;2023-01-09T00:12:46;2.83;;;2.00;;
5343;SDS011;2694;48.950;8.970;2023-01-09T00:15:15;2.10;;;1.60;;
5343;SDS011;2694;48.950;8.970;2023-01-09T00:17:42;2.28;;;2.00;;
5343;SDS011;2694;48.950;8.970;2023-01-09T00:20:12;1.48;;;1.38;;
5343;SDS011;2694;48.950;8.970;2023-01-09T00:22:39;2.97;;;1.80;;
5343;SDS011;2694;48.950;8.970;2023-01-09T00:25:06;1.85;;;1.20;;
5343;SDS011;2694;48.950;8.970;2023-01-09T00:27:34;2.13;;;1.50;;
5343;SDS011;2694;48.950;8.970;2023-01-09T00:30:02;2.17;;;1.50;;
5343;SDS011;2694;48.950;8.970;2023-01-09T00:32:31;2.58;;;1.80;;
5343;SDS011;2694;48.950;8.970;2023-01-09T00:34:58;2.43;;;1.53;;
5343;SDS011;2694;48.950;8.970;2023-01-09T00:37:25;1.50;;;1.40;;
5343;SDS011;2694;48.950;8.970;2023-01-09T00:39:52;2.00;;;1.50;;
5343;SDS011;2694;48.950;8.970;2023-01-09T00:42:22;1.92;;;1.23;;
5343;SDS011;2694;48.950;8.970;2023-01-09T00:44:53;1.60;;;1.40;;
5343;SDS011;2694;48.950;8.970;2023-01-09T00:47:24;2.35;;;1.70;;
5343;SDS011;2694;48.950;8.970;2023-01-09T00:49:56;2.60;;;1.80;;
5343;SDS011;2694;48.950;8.970;2023-01-09T00:52:26;2.25;;;1.85;;
5343;SDS011;2694;48.950;8.970;2023-01-09T00:54:54;2.35;;;1.65;;
5343;SDS011;2694;48.950;8.970;2023-01-09T00:57:24;2.10;;;1.88;;
5343;SDS011;2694;48.950;8.970;2023-01-09T00:59:51;2.83;;;1.80;;
5343;SDS011;2694;48.950;8.970;2023-01-09T01:02:18;3.05;;;1.50;;
5343;SDS011;2694;48.950;8.970;2023-01-09T01:04:45;2.83;;;2.10;;
5343;SDS011;2694;48.950;8.970;2023-01-09T01:07:31;2.22;;;2.00;;
5343;SDS011;2694;48.950;8.970;2023-01-09T01:10:04;1.63;;;1.50;;
5343;SDS011;2694;48.950;8.970;2023-01-09T01:12:34;2.15;;;1.60;;
5343;SDS011;2694;48.950;8.970;2023-01-09T01:15:01;1.90;;;1.60;;
5343;SDS011;2694;48.950;8.970;2023-01-09T01:17:28;3.50;;;1.80;;
5343;SDS011;2694;48.950;8.970;2023-01-09T01:19:55;3.60;;;1.50;;
5343;SDS011;2694;48.950;8.970;2023-01-09T01:22:22;2.45;;;1.90;;
5343;SDS011;2694;48.950;8.970;2023-01-09T01:24:51;1.50;;;1.23;;
5343;SDS011;2694;48.950;8.970;2023-01-09T01:27:18;2.33;;;1.15;;
5343;SDS011;2694;48.950;8.970;2023-01-09T01:29:45;1.20;;;1.10;;
5343;SDS011;2694;48.950;8.970;2023-01-09T01:32:12;2.75;;;1.38;;
5343;SDS011;2694;48.950;8.970;2023-01-09T01:34:39;1.70;;;1.17;;
5343;SDS011;2694;48.950;8.970;2023-01-09T01:37:06;1.60;;;1.40;;
5343;SDS011;2694;48.950;8.970;2023-01-09T01:39:33;2.83;;;1.23;;
5343;SDS011;2694;48.950;8.970;2023-01-09T01:42:01;1.30;;;1.20;;
5343;SDS011;2694;48.950;8.970;2023-01-09T01:47:27;1.80;;;1.10;;
5343;SDS011;2694;48.950;8.970;2023-01-09T01:49:59;1.30;;;0.73;;
5343;SDS011;2694;48.950;8.970;2023-01-09T01:52:33;1.27;;;0.80;;
5343;SDS011;2694;48.950;8.970;2023-01-09T01:55:02;1.17;;;0.80;;
5343;SDS011;2694;48.950;8.970;2023-01-09T01:57:33;1.63;;;0.90;;
5343;SDS011;2694;48.950;8.970;2023-01-09T02:00:03;1.10;;;1.00;;
5343;SDS011;2694;48.950;8.970;2023-01-09T02:02:31;2.20;;;0.90;;
5343;SDS011;2694;48.950;8.970;2023-01-09T02:04:59;1.65;;;1.00;;
5343;SDS011;2694;48.950;8.970;2023-01-09T02:07:27;3.00;;;1.00;;
5343;SDS011;2694;48.950;8.970;2023-01-09T02:09:55;2.00;;;0.90;;
5343;SDS011;2694;48.950;8.970;2023-01-09T02:12:23;1.20;;;0.90;;
5343;SDS011;2694;48.950;8.970;2023-01-09T02:14:54;2.80;;;0.90;;
5343;SDS011;2694;48.950;8.970;2023-01-09T02:17:32;0.73;;;0.60;;
5343;SDS011;2694;48.950;8.970;2023-01-09T02:23:12;7.43;;;4.82;;
5343;SDS011;2694;48.950;8.970;2023-01-09T02:32:15;0.93;;;0.60;;
5343;SDS011;2694;48.950;8.970;2023-01-09T02:34:55;2.90;;;0.60;;
5343;SDS011;2694;48.950;8.970;2023-01-09T02:37:33;0.90;;;0.43;;
5343;SDS011;2694;48.950;8.970;2023-01-09T02:40:07;1.30;;;0.60;;
5343;SDS011;2694;48.950;8.970;2023-01-09T02:42:40;1.10;;;0.60;;
5343;SDS011;2694;48.950;8.970;2023-01-09T02:45:09;0.60;;;0.60;;
5343;SDS011;2694;48.950;8.970;2023-01-09T02:47:41;1.08;;;0.40;;
5343;SDS011;2694;48.950;8.970;2023-01-09T02:50:11;0.77;;;0.50;;
5343;SDS011;2694;48.950;8.970;2023-01-09T02:55:50;0.80;;;0.60;;
5343;SDS011;2694;48.950;8.970;2023-01-09T02:58:30;0.80;;;0.57;;
5343;SDS011;2694;48.950;8.970;2023-01-09T03:01:11;1.10;;;0.50;;
5343;SDS011;2694;48.950;8.970;2023-01-09T03:03:48;2.20;;;0.60;;
5343;SDS011;2694;48.950;8.970;2023-01-09T03:06:22;0.60;;;0.40;;
5343;SDS011;2694;48.950;8.970;2023-01-09T03:08:56;0.60;;;0.50;;
5343;SDS011;2694;48.950;8.970;2023-01-09T03:11:27;1.00;;;0.50;;
5343;SDS011;2694;48.950;8.970;2023-01-09T03:14:00;2.45;;;1.88;;
5343;SDS011;2694;48.950;8.970;2023-01-09T03:16:33;3.00;;;1.90;;
5343;SDS011;2694;48.950;8.970;2023-01-09T03:19:04;0.50;;;0.25;;
5343;SDS011;2694;48.950;8.970;2023-01-09T03:21:34;0.45;;;0.20;;
5343;SDS011;2694;48.950;8.970;2023-01-09T03:24:01;0.90;;;0.30;;
5343;SDS011;2694;48.950;8.970;2023-01-09T03:26:29;0.50;;;0.30;;
5343;SDS011;2694;48.950;8.970;2023-01-09T03:28:56;1.35;;;0.30;;
5343;SDS011;2694;48.950;8.970;2023-01-09T03:31:24;0.60;;;0.30;;
5343;SDS011;2694;48.950;8.970;2023-01-09T03:33:51;1.15;;;0.30;;
5343;SDS011;2694;48.950;8.970;2023-01-09T03:36:19;0.55;;;0.20;;
5343;SDS011;2694;48.950;8.970;2023-01-09T03:38:47;1.17;;;0.20;;
5343;SDS011;2694;48.950;8.970;2023-01-09T03:41:15;1.98;;;0.20;;
5343;SDS011;2694;48.950;8.970;2023-01-09T03:43:43;0.70;;;0.30;;
5343;SDS011;2694;48.950;8.970;2023-01-09T03:46:11;0.50;;;0.20;;
5343;SDS011;2694;48.950;8.970;2023-01-09T03:48:39;0.52;;;0.20;;
5343;SDS011;2694;48.950;8.970;2023-01-09T03:51:06;0.60;;;0.20;;
5343;SDS011;2694;48.950;8.970;2023-01-09T03:53:34;1.70;;;0.30;;
5343;SDS011;2694;48.950;8.970;2023-01-09T03:56:01;0.80;;;0.30;;
5343;SDS011;2694;48.950;8.970;2023-01-09T03:58:28;0.73;;;0.33;;
5343;SDS011;2694;48.950;8.970;2023-01-09T04:00:59;0.50;;;0.20;;
5343;SDS011;2694;48.950;8.970;2023-01-09T04:03:27;0.80;;;0.22;;
5343;SDS011;2694;48.950;8.970;2023-01-09T04:05:54;0.80;;;0.30;;
5343;SDS011;2694;48.950;8.970;2023-01-09T04:08:21;0.40;;;0.20;;
5343;SDS011;2694;48.950;8.970;2023-01-09T04:10:50;0.70;;;0.30;;
5343;SDS011;2694;48.950;8.970;2023-01-09T04:13:17;2.00;;;0.20;;
5343;SDS011;2694;48.950;8.970;2023-01-09T04:15:45;1.50;;;0.53;;
5343;SDS011;2694;48.950;8.970;2023-01-09T04:18:11;0.90;;;0.30;;
5343;SDS011;2694;48.950;8.970;2023-01-09T04:20:39;0.43;;;0.20;;
5343;SDS011;2694;48.950;8.970;2023-01-09T04:23:09;0.68;;;0.20;;
5343;SDS011;2694;48.950;8.970;2023-01-09T04:25:36;1.17;;;0.30;;
5343;SDS011;2694;48.950;8.970;2023-01-09T04:28:05;0.68;;;0.40;;
5343;SDS011;2694;48.950;8.970;2023-01-09T04:30:32;0.50;;;0.20;;
5343;SDS011;2694;48.950;8.970;2023-01-09T04:32:59;0.60;;;0.40;;
5343;SDS011;2694;48.950;8.970;2023-01-09T04:35:26;1.83;;;0.57;;
5343;SDS011;2694;48.950;8.970;2023-01-09T04:37:53;1.60;;;0.40;;
5343;SDS011;2694;48.950;8.970;2023-01-09T04:40:20;0.85;;;0.30;;
5343;SDS011;2694;48.950;8.970;2023-01-09T04:42:47;4.40;;;0.35;;
5343;SDS011;2694;48.950;8.970;2023-01-09T04:45:15;0.75;;;0.32;;
5343;SDS011;2694;48.950;8.970;2023-01-09T04:47:42;0.80;;;0.50;;
5343;SDS011;2694;48.950;8.970;2023-01-09T04:50:10;0.77;;;0.30;;
5343;SDS011;2694;48.950;8.970;2023-01-09T04:52:37;0.60;;;0.20;;
5343;SDS011;2694;48.950;8.970;2023-01-09T04:55:05;2.90;;;0.32;;
5343;SDS011;2694;48.950;8.970;2023-01-09T04:57:33;1.10;;;0.30;;
5343;SDS011;2694;48.950;8.970;2023-01-09T05:00:00;0.90;;;0.32;;
5343;SDS011;2694;48.950;8.970;2023-01-09T05:02:28;2.25;;;0.50;;
5343;SDS011;2694;48.950;8.970;2023-01-09T05:04:55;2.42;;;0.30;;
5343;SDS011;2694;48.950;8.970;2023-01-09T05:07:22;2.40;;;0.40;;
5343;SDS011;2694;48.950;8.970;2023-01-09T05:09:49;3.00;;;0.60;;
5343;SDS011;2694;48.950;8.970;2023-01-09T05:12:16;1.52;;;0.50;;
5343;SDS011;2694;48.950;8.970;2023-01-09T05:14:43;1.50;;;0.40;;
5343;SDS011;2694;48.950;8.970;2023-01-09T05:17:10;1.48;;;0.38;;
5343;SDS011;2694;48.950;8.970;2023-01-09T05:19:38;1.83;;;0.60;;
5343;SDS011;2694;48.950;8.970;2023-01-09T05:22:06;2.70;;;0.50;;
5343;SDS011;2694;48.950;8.970;2023-01-09T05:24:33;2.20;;;0.50;;
5343;SDS011;2694;48.950;8.970;2023-01-09T05:27:00;1.20;;;0.50;;
5343;SDS011;2694;48.950;8.970;2023-01-09T05:29:27;1.58;;;0.57;;
5343;SDS011;2694;48.950;8.970;2023-01-09T05:31:54;1.90;;;0.60;;
5343;SDS011;2694;48.950;8.970;2023-01-09T05:34:21;3.70;;;0.50;;
5343;SDS011;2694;48.950;8.970;2023-01-09T05:36:49;1.67;;;0.60;;
5343;SDS011;2694;48.950;8.970;2023-01-09T05:39:16;4.10;;;0.50;;
5343;SDS011;2694;48.950;8.970;2023-01-09T05:41:43;1.17;;;0.40;;
5343;SDS011;2694;48.950;8.970;2023-01-09T05:44:10;1.23;;;0.50;;
5343;SDS011;2694;48.950;8.970;2023-01-09T05:46:37;1.93;;;0.40;;
5343;SDS011;2694;48.950;8.970;2023-01-09T05:49:04;2.50;;;0.50;;
5343;SDS011;2694;48.950;8.970;2023-01-09T05:51:31;1.00;;;0.40;;
5343;SDS011;2694;48.950;8.970;2023-01-09T05:54:00;3.30;;;0.70;;
5343;SDS011;2694;48.950;8.970;2023-01-09T05:56:28;1.98;;;0.50;;
5343;SDS011;2694;48.950;8.970;2023-01-09T05:58:55;3.90;;;0.60;;
5343;SDS011;2694;48.950;8.970;2023-01-09T06:01:22;2.85;;;0.70;;
5343;SDS011;2694;48.950;8.970;2023-01-09T06:03:49;1.98;;;0.88;;
5343;SDS011;2694;48.950;8.970;2023-01-09T06:06:16;3.60;;;0.90;;
5343;SDS011;2694;48.950;8.970;2023-01-09T06:08:43;3.03;;;0.82;;
5343;SDS011;2694;48.950;8.970;2023-01-09T06:11:11;2.97;;;0.70;;
5343;SDS011;2694;48.950;8.970;2023-01-09T06:13:38;4.60;;;1.00;;
5343;SDS011;2694;48.950;8.970;2023-01-09T06:16:06;3.67;;;0.88;;
5343;SDS011;2694;48.950;8.970;2023-01-09T06:18:33;1.98;;;0.52;;
5343;SDS011;2694;48.950;8.970;2023-01-09T06:21:00;2.85;;;0.50;;
5343;SDS011;2694;48.950;8.970;2023-01-09T06:23:27;3.15;;;0.80;;
5343;SDS011;2694;48.950;8.970;2023-01-09T06:25:54;4.50;;;0.60;;
5343;SDS011;2694;48.950;8.970;2023-01-09T06:28:22;2.25;;;0.60;;
5343;SDS011;2694;48.950;8.970;2023-01-09T06:30:49;1.83;;;0.70;;
5343;SDS011;2694;48.950;8.970;2023-01-09T06:33:17;5.63;;;0.90;;
5343;SDS011;2694;48.950;8.970;2023-01-09T06:35:44;1.38;;;0.60;;
5343;SDS011;2694;48.950;8.970;2023-01-09T06:38:11;2.60;;;0.52;;
5343;SDS011;2694;48.950;8.970;2023-01-09T06:40:39;5.35;;;0.90;;
5343;SDS011;2694;48.950;8.970;2023-01-09T06:43:05;5.30;;;0.50;;
5343;SDS011;2694;48.950;8.970;2023-01-09T06:45:34;5.43;;;2.00;;
5343;SDS011;2694;48.950;8.970;2023-01-09T06:48:01;3.60;;;1.10;;
5343;SDS011;2694;48.950;8.970;2023-01-09T06:50:28;7.38;;;1.10;;
5343;SDS011;2694;48.950;8.970;2023-01-09T06:52:57;6.15;;;1.17;;
5343;SDS011;2694;48.950;8.970;2023-01-09T06:55:24;4.70;;;1.08;;
5343;SDS011;2694;48.950;8.970;2023-01-09T06:57:52;7.40;;;1.02;;
5343;SDS011;2694;48.950;8.970;2023-01-09T07:00:19;3.30;;;0.98;;
5343;SDS011;2694;48.950;8.970;2023-01-09T07:02:48;4.80;;;0.80;;
5343;SDS011;2694;48.950;8.970;2023-01-09T07:05:15;4.30;;;0.82;;
5343;SDS011;2694;48.950;8.970;2023-01-09T07:07:42;6.30;;;1.20;;
5343;SDS011;2694;48.950;8.970;2023-01-09T07:10:09;2.72;;;0.60;;
5343;SDS011;2694;48.950;8.970;2023-01-09T07:12:36;2.60;;;0.80;;
5343;SDS011;2694;48.950;8.970;2023-01-09T07:15:04;2.50;;;0.70;;
5343;SDS011;2694;48.950;8.970;2023-01-09T07:17:31;4.72;;;0.70;;
5343;SDS011;2694;48.950;8.970;2023-01-09T07:20:00;2.63;;;0.50;;
5343;SDS011;2694;48.950;8.970;2023-01-09T07:22:27;2.75;;;0.88;;
5343;SDS011;2694;48.950;8.970;2023-01-09T07:24:54;5.18;;;1.10;;
5343;SDS011;2694;48.950;8.970;2023-01-09T07:27:21;4.07;;;0.60;;
5343;SDS011;2694;48.950;8.970;2023-01-09T07:29:48;4.72;;;1.55;;
5343;SDS011;2694;48.950;8.970;2023-01-09T07:32:17;5.38;;;1.50;;
5343;SDS011;2694;48.950;8.970;2023-01-09T07:34:44;1.70;;;0.60;;
5343;SDS011;2694;48.950;8.970;2023-01-09T07:37:14;7.00;;;1.48;;
5343;SDS011;2694;48.950;8.970;2023-01-09T07:39:41;6.28;;;2.55;;
5343;SDS011;2694;48.950;8.970;2023-01-09T07:42:08;11.55;;;5.15;;
5343;SDS011;2694;48.950;8.970;2023-01-09T07:44:35;8.75;;;2.30;;
5343;SDS011;2694;48.950;8.970;2023-01-09T07:47:02;4.30;;;1.40;;
5343;SDS011;2694;48.950;8.970;2023-01-09T07:49:29;3.30;;;1.30;;
5343;SDS011;2694;48.950;8.970;2023-01-09T07:51:56;4.03;;;1.10;;
5343;SDS011;2694;48.950;8.970;2023-01-09T07:54:25;4.88;;;1.40;;
5343;SDS011;2694;48.950;8.970;2023-01-09T07:56:52;3.33;;;0.70;;
5343;SDS011;2694;48.950;8.970;2023-01-09T07:59:20;3.80;;;0.80;;
5343;SDS011;2694;48.950;8.970;2023-01-09T08:01:47;3.22;;;0.93;;
5343;SDS011;2694;48.950;8.970;2023-01-09T08:04:14;4.63;;;0.70;;
5343;SDS011;2694;48.950;8.970;2023-01-09T08:06:41;5.13;;;0.90;;
5343;SDS011;2694;48.950;8.970;2023-01-09T08:09:08;2.90;;;0.90;;
5343;SDS011;2694;48.950;8.970;2023-01-09T08:11:36;5.80;;;1.08;;
5343;SDS011;2694;48.950;8.970;2023-01-09T08:14:03;3.97;;;1.50;;
5343;SDS011;2694;48.950;8.970;2023-01-09T08:16:30;6.63;;;1.73;;
5343;SDS011;2694;48.950;8.970;2023-01-09T08:18:57;6.20;;;1.20;;
5343;SDS011;2694;48.950;8.970;2023-01-09T08:21:24;4.30;;;1.48;;
5343;SDS011;2694;48.950;8.970;2023-01-09T08:23:51;2.50;;;0.70;;
5343;SDS011;2694;48.950;8.970;2023-01-09T08:26:18;5.03;;;0.82;;
5343;SDS011;2694;48.950;8.970;2023-01-09T08:28:46;4.90;;;0.68;;
5343;SDS011;2694;48.950;8.970;2023-01-09T08:31:13;7.30;;;1.23;;
5343;SDS011;2694;48.950;8.970;2023-01-09T08:33:40;4.03;;;0.80;;
5343;SDS011;2694;48.950;8.970;2023-01-09T08:36:08;3.77;;;0.80;;
5343;SDS011;2694;48.950;8.970;2023-01-09T08:38:36;2.00;;;0.70;;
5343;SDS011;2694;48.950;8.970;2023-01-09T08:41:03;4.50;;;0.70;;
5343;SDS011;2694;48.950;8.970;2023-01-09T08:43:51;4.03;;;1.10;;
5343;SDS011;2694;48.950;8.970;2023-01-09T08:46:36;3.13;;;0.60;;
5343;SDS011;2694;48.950;8.970;2023-01-09T08:49:20;2.47;;;0.63;;
5343;SDS011;2694;48.950;8.970;2023-01-09T08:51:47;5.75;;;0.85;;
5343;SDS011;2694;48.950;8.970;2023-01-09T08:54:14;2.83;;;0.50;;
5343;SDS011;2694;48.950;8.970;2023-01-09T08:56:41;2.35;;;0.50;;
5343;SDS011;2694;48.950;8.970;2023-01-09T08:59:09;4.30;;;0.55;;
5343;SDS011;2694;48.950;8.970;2023-01-09T09:01:36;4.30;;;0.82;;
5343;SDS011;2694;48.950;8.970;2023-01-09T09:04:03;5.28;;;1.17;;
5343;SDS011;2694;48.950;8.970;2023-01-09T09:06:31;5.03;;;0.77;;
5343;SDS011;2694;48.950;8.970;2023-01-09T09:08:58;5.50;;;0.90;;
5343;SDS011;2694;48.950;8.970;2023-01-09T09:11:27;2.45;;;0.85;;
5343;SDS011;2694;48.950;8.970;2023-01-09T09:13:54;4.93;;;1.00;;
5343;SDS011;2694;48.950;8.970;2023-01-09T09:16:23;5.05;;;1.15;;
5343;SDS011;2694;48.950;8.970;2023-01-09T09:18:50;1.75;;;0.80;;
5343;SDS011;2694;48.950;8.970;2023-01-09T09:21:17;4.53;;;0.80;;
5343;SDS011;2694;48.950;8.970;2023-01-09T09:23:44;2.30;;;0.60;;
5343;SDS011;2694;48.950;8.970;2023-01-09T09:26:11;3.10;;;0.60;;
5343;SDS011;2694;48.950;8.970;2023-01-09T09:28:38;5.28;;;0.70;;
5343;SDS011;2694;48.950;8.970;2023-01-09T09:31:05;2.83;;;0.60;;
5343;SDS011;2694;48.950;8.970;2023-01-09T09:33:34;4.57;;;0.63;;
5343;SDS011;2694;48.950;8.970;2023-01-09T09:36:01;1.83;;;0.60;;
5343;SDS011;2694;48.950;8.970;2023-01-09T09:38:28;2.10;;;0.40;;
5343;SDS011;2694;48.950;8.970;2023-01-09T09:40:59;1.90;;;0.90;;
5343;SDS011;2694;48.950;8.970;2023-01-09T09:44:01;5.00;;;0.70;;
5343;SDS011;2694;48.950;8.970;2023-01-09T09:47:08;4.80;;;0.50;;
5343;SDS011;2694;48.950;8.970;2023-01-09T09:49:46;1.93;;;0.60;;
5343;SDS011;2694;48.950;8.970;2023-01-09T09:52:23;1.80;;;0.75;;
5343;SDS011;2694;48.950;8.970;2023-01-09T09:54:57;5.63;;;0.70;;
5343;SDS011;2694;48.950;8.970;2023-01-09T09:57:31;2.83;;;0.77;;
5343;SDS011;2694;48.950;8.970;2023-01-09T10:00:02;3.30;;;0.50;;
5343;SDS011;2694;48.950;8.970;2023-01-09T10:02:31;3.20;;;0.40;;
5343;SDS011;2694;48.950;8.970;2023-01-09T10:05:13;2.65;;;0.70;;
5343;SDS011;2694;48.950;8.970;2023-01-09T10:07:46;2.67;;;0.50;;
5343;SDS011;2694;48.950;8.970;2023-01-09T10:10:15;2.47;;;0.40;;
5343;SDS011;2694;48.950;8.970;2023-01-09T10:12:49;3.28;;;0.60;;
5343;SDS011;2694;48.950;8.970;2023-01-09T10:15:23;1.10;;;0.52;;
5343;SDS011;2694;48.950;8.970;2023-01-09T10:17:59;2.30;;;0.40;;
5343;SDS011;2694;48.950;8.970;2023-01-09T10:20:43;4.40;;;0.57;;
5343;SDS011;2694;48.950;8.970;2023-01-09T10:26:26;2.55;;;0.68;;
5343;SDS011;2694;48.950;8.970;2023-01-09T10:29:08;3.03;;;0.82;;
5343;SDS011;2694;48.950;8.970;2023-01-09T10:31:53;2.47;;;0.75;;
5343;SDS011;2694;48.950;8.970;2023-01-09T10:34:30;2.60;;;0.90;;
5343;SDS011;2694;48.950;8.970;2023-01-09T10:37:10;2.65;;;1.00;;
5343;SDS011;2694;48.950;8.970;2023-01-09T10:39:42;1.40;;;0.70;;
5343;SDS011;2694;48.950;8.970;2023-01-09T10:42:15;5.38;;;2.75;;
5343;SDS011;2694;48.950;8.970;2023-01-09T10:44:48;3.90;;;1.80;;
5343;SDS011;2694;48.950;8.970;2023-01-09T10:47:21;3.85;;;1.40;;
5343;SDS011;2694;48.950;8.970;2023-01-09T10:49:52;2.75;;;0.70;;
5343;SDS011;2694;48.950;8.970;2023-01-09T10:52:25;6.05;;;1.10;;
5343;SDS011;2694;48.950;8.970;2023-01-09T10:54:59;2.30;;;0.80;;
5343;SDS011;2694;48.950;8.970;2023-01-09T10:57:39;1.83;;;0.60;;
5343;SDS011;2694;48.950;8.970;2023-01-09T11:00:13;2.97;;;0.60;;
5343;SDS011;2694;48.950;8.970;2023-01-09T11:02:42;3.70;;;0.80;;
5343;SDS011;2694;48.950;8.970;2023-01-09T11:05:10;2.63;;;0.60;;
5343;SDS011;2694;48.950;8.970;2023-01-09T11:07:43;1.10;;;0.40;;
5343;SDS011;2694;48.950;8.970;2023-01-09T11:10:12;5.53;;;2.15;;
5343;SDS011;2694;48.950;8.970;2023-01-09T11:12:39;4.10;;;2.05;;
5343;SDS011;2694;48.950;8.970;2023-01-09T11:20:44;4.18;;;0.90;;
5343;SDS011;2694;48.950;8.970;2023-01-09T11:23:29;1.90;;;0.45;;
5343;SDS011;2694;48.950;8.970;2023-01-09T11:25:57;2.58;;;0.70;;
5343;SDS011;2694;48.950;8.970;2023-01-09T11:28:25;1.10;;;0.30;;
5343;SDS011;2694;48.950;8.970;2023-01-09T11:30:54;3.40;;;0.63;;
5343;SDS011;2694;48.950;8.970;2023-01-09T11:33:24;1.40;;;0.30;;
5343;SDS011;2694;48.950;8.970;2023-01-09T11:35:54;3.95;;;0.90;;
5343;SDS011;2694;48.950;8.970;2023-01-09T11:38:24;1.60;;;0.50;;
5343;SDS011;2694;48.950;8.970;2023-01-09T11:40:55;1.50;;;0.60;;
5343;SDS011;2694;48.950;8.970;2023-01-09T11:43:28;3.78;;;0.50;;
5343;SDS011;2694;48.950;8.970;2023-01-09T11:45:58;1.90;;;0.50;;
5343;SDS011;2694;48.950;8.970;2023-01-09T11:48:31;3.85;;;0.98;;
5343;SDS011;2694;48.950;8.970;2023-01-09T11:51:15;2.40;;;0.90;;
5343;SDS011;2694;48.950;8.970;2023-01-09T11:53:47;2.60;;;0.70;;
5343;SDS011;2694;48.950;8.970;2023-01-09T11:56:24;3.40;;;0.80;;
5343;SDS011;2694;48.950;8.970;2023-01-09T11:58:51;1.52;;;0.85;;
5343;SDS011;2694;48.950;8.970;2023-01-09T12:01:44;2.10;;;0.50;;
5343;SDS011;2694;48.950;8.970;2023-01-09T12:04:46;2.58;;;0.57;;
5343;SDS011;2694;48.950;8.970;2023-01-09T12:13:24;1.03;;;0.30;;
5343;SDS011;2694;48.950;8.970;2023-01-09T12:16:04;0.98;;;0.40;;
5343;SDS011;2694;48.950;8.970;2023-01-09T12:18:44;4.50;;;1.00;;
5343;SDS011;2694;48.950;8.970;2023-01-09T12:21:24;4.28;;;1.10;;
5343;SDS011;2694;48.950;8.970;2023-01-09T12:24:01;2.13;;;0.93;;
5343;SDS011;2694;48.950;8.970;2023-01-09T12:26:46;2.30;;;0.50;;
5343;SDS011;2694;48.950;8.970;2023-01-09T12:29:28;2.00;;;0.40;;
5343;SDS011;2694;48.950;8.970;2023-01-09T12:32:15;1.30;;;0.30;;
5343;SDS011;2694;48.950;8.970;2023-01-09T12:35:05;0.80;;;0.30;;
5343;SDS011;2694;48.950;8.970;2023-01-09T12:37:50;1.80;;;0.40;;
5343;SDS011;2694;48.950;8.970;2023-01-09T12:43:21;1.35;;;0.50;;
5343;SDS011;2694;48.950;8.970;2023-01-09T12:46:02;1.10;;;0.30;;
5343;SDS011;2694;48.950;8.970;2023-01-09T12:48:47;1.40;;;0.40;;
5343;SDS011;2694;48.950;8.970;2023-01-09T12:51:24;3.65;;;0.45;;
5343;SDS011;2694;48.950;8.970;2023-01-09T12:53:57;0.90;;;0.30;;
5343;SDS011;2694;48.950;8.970;2023-01-09T12:56:28;1.70;;;0.32;;
5343;SDS011;2694;48.950;8.970;2023-01-09T12:58:59;1.60;;;0.40;;
5343;SDS011;2694;48.950;8.970;2023-01-09T13:01:35;2.80;;;0.40;;
5343;SDS011;2694;48.950;8.970;2023-01-09T13:04:08;0.90;;;0.30;;
5343;SDS011;2694;48.950;8.970;2023-01-09T13:06:42;1.90;;;0.40;;
5343;SDS011;2694;48.950;8.970;2023-01-09T13:09:19;1.52;;;0.45;;
5343;SDS011;2694;48.950;8.970;2023-01-09T13:11:53;1.70;;;0.40;;
5343;SDS011;2694;48.950;8.970;2023-01-09T13:14:31;1.52;;;0.40;;
5343;SDS011;2694;48.950;8.970;2023-01-09T13:17:14;3.20;;;0.50;;
5343;SDS011;2694;48.950;8.970;2023-01-09T13:19:45;2.10;;;0.50;;
5343;SDS011;2694;48.950;8.970;2023-01-09T13:22:12;3.35;;;0.60;;
5343;SDS011;2694;48.950;8.970;2023-01-09T13:24:44;1.00;;;0.60;;
5343;SDS011;2694;48.950;8.970;2023-01-09T13:27:20;5.00;;;0.50;;
5343;SDS011;2694;48.950;8.970;2023-01-09T13:29:51;2.00;;;0.60;;
5343;SDS011;2694;48.950;8.970;2023-01-09T13:32:27;1.50;;;0.38;;
5343;SDS011;2694;48.950;8.970;2023-01-09T13:35:03;0.87;;;0.43;;
5343;SDS011;2694;48.950;8.970;2023-01-09T13:37:37;4.55;;;0.70;;
5343;SDS011;2694;48.950;8.970;2023-01-09T13:40:06;2.30;;;0.80;;
5343;SDS011;2694;48.950;8.970;2023-01-09T13:42:53;1.70;;;0.50;;
5343;SDS011;2694;48.950;8.970;2023-01-09T13:45:23;3.63;;;0.70;;
5343;SDS011;2694;48.950;8.970;2023-01-09T13:57:27;1.40;;;0.40;;
5343;SDS011;2694;48.950;8.970;2023-01-09T14:00:43;1.85;;;0.52;;
5343;SDS011;2694;48.950;8.970;2023-01-09T14:03:14;2.22;;;1.00;;
5343;SDS011;2694;48.950;8.970;2023-01-09T14:08:45;2.80;;;0.30;;
5343;SDS011;2694;48.950;8.970;2023-01-09T14:11:20;1.40;;;0.60;;
5343;SDS011;2694;48.950;8.970;2023-01-09T14:14:13;1.58;;;0.57;;
5343;SDS011;2694;48.950;8.970;2023-01-09T14:16:47;2.38;;;0.30;;
5343;SDS011;2694;48.950;8.970;2023-01-09T14:19:20;1.20;;;0.70;;
5343;SDS011;2694;48.950;8.970;2023-01-09T14:21:58;3.58;;;0.50;;
5343;SDS011;2694;48.950;8.970;2023-01-09T14:24:27;2.65;;;0.50;;
5343;SDS011;2694;48.950;8.970;2023-01-09T14:26:57;1.75;;;0.70;;
5343;SDS011;2694;48.950;8.970;2023-01-09T14:35:20;2.13;;;0.70;;
5343;SDS011;2694;48.950;8.970;2023-01-09T14:38:03;5.43;;;0.80;;
5343;SDS011;2694;48.950;8.970;2023-01-09T14:40:43;3.42;;;0.70;;
5343;SDS011;2694;48.950;8.970;2023-01-09T14:43:15;1.70;;;0.80;;
5343;SDS011;2694;48.950;8.970;2023-01-09T14:45:51;2.13;;;1.02;;
5343;SDS011;2694;48.950;8.970;2023-01-09T14:48:23;3.65;;;0.50;;
5343;SDS011;2694;48.950;8.970;2023-01-09T14:50:52;3.70;;;0.90;;
5343;SDS011;2694;48.950;8.970;2023-01-09T14:53:22;5.60;;;0.70;;
5343;SDS011;2694;48.950;8.970;2023-01-09T14:55:51;3.67;;;0.98;;
5343;SDS011;2694;48.950;8.970;2023-01-09T14:58:22;2.17;;;0.88;;
5343;SDS011;2694;48.950;8.970;2023-01-09T15:00:57;4.03;;;1.27;;
5343;SDS011;2694;48.950;8.970;2023-01-09T15:03:28;2.80;;;1.10;;
5343;SDS011;2694;48.950;8.970;2023-01-09T15:05:58;1.40;;;0.60;;
5343;SDS011;2694;48.950;8.970;2023-01-09T15:08:26;1.90;;;0.50;;
5343;SDS011;2694;48.950;8.970;2023-01-09T15:10:54;2.08;;;0.50;;
5343;SDS011;2694;48.950;8.970;2023-01-09T15:13:26;2.47;;;0.70;;
5343;SDS011;2694;48.950;8.970;2023-01-09T15:15:57;1.60;;;0.50;;
5343;SDS011;2694;48.950;8.970;2023-01-09T15:18:27;1.00;;;0.43;;
5343;SDS011;2694;48.950;8.970;2023-01-09T15:20:58;4.68;;;0.77;;
5343;SDS011;2694;48.950;8.970;2023-01-09T15:23:28;2.38;;;1.10;;
5343;SDS011;2694;48.950;8.970;2023-01-09T15:25:56;3.75;;;1.50;;
5343;SDS011;2694;48.950;8.970;2023-01-09T15:28:38;4.63;;;1.27;;
5343;SDS011;2694;48.950;8.970;2023-01-09T15:31:09;3.20;;;1.30;;
5343;SDS011;2694;48.950;8.970;2023-01-09T15:33:39;3.60;;;1.65;;
5343;SDS011;2694;48.950;8.970;2023-01-09T15:36:09;3.15;;;1.25;;
5343;SDS011;2694;48.950;8.970;2023-01-09T15:38:39;1.27;;;0.77;;
5343;SDS011;2694;48.950;8.970;2023-01-09T15:41:08;1.40;;;0.60;;
5343;SDS011;2694;48.950;8.970;2023-01-09T15:43:38;1.30;;;0.80;;
5343;SDS011;2694;48.950;8.970;2023-01-09T15:46:09;4.57;;;1.10;;
5343;SDS011;2694;48.950;8.970;2023-01-09T15:48:37;1.77;;;1.00;;
5343;SDS011;2694;48.950;8.970;2023-01-09T15:51:04;3.78;;;1.70;;
5343;SDS011;2694;48.950;8.970;2023-01-09T15:53:34;4.60;;;1.60;;
5343;SDS011;2694;48.950;8.970;2023-01-09T15:56:03;3.67;;;1.75;;
5343;SDS011;2694;48.950;8.970;2023-01-09T15:58:49;3.40;;;1.80;;
5343;SDS011;2694;48.950;8.970;2023-01-09T16:01:22;1.35;;;1.05;;
5343;SDS011;2694;48.950;8.970;2023-01-09T16:03:53;2.05;;;1.50;;
5343;SDS011;2694;48.950;8.970;2023-01-09T16:06:23;4.50;;;2.58;;
5343;SDS011;2694;48.950;8.970;2023-01-09T16:08:52;8.57;;;5.00;;
5343;SDS011;2694;48.950;8.970;2023-01-09T16:11:22;6.93;;;3.80;;
5343;SDS011;2694;48.950;8.970;2023-01-09T16:13:51;10.17;;;5.27;;
5343;SDS011;2694;48.950;8.970;2023-01-09T16:16:23;9.32;;;4.85;;
5343;SDS011;2694;48.950;8.970;2023-01-09T16:18:53;10.77;;;3.90;;
5343;SDS011;2694;48.950;8.970;2023-01-09T16:21:22;6.18;;;3.22;;
5343;SDS011;2694;48.950;8.970;2023-01-09T16:23:55;6.78;;;3.65;;
5343;SDS011;2694;48.950;8.970;2023-01-09T16:26:25;3.45;;;1.80;;
5343;SDS011;2694;48.950;8.970;2023-01-09T16:28:53;3.10;;;1.20;;